sensor_id;sensor_type;location;lat;lon;timestamp;temperature;humidity
54461;DHT22;40371;49.414;11.010;2022-07-19T00:01:20;20.60;78.30
54461;DHT22;40371;49.414;11.010;2022-07-19T00:03:45;20.70;78.10
54461;DHT22;40371;49.414;11.010;2022-07-19T00:06:11;20.70;77.30
54461;DHT22;40371;49.414;11.010;2022-07-19T00:08:36;20.60;77.50
54461;DHT22;40371;49.414;11.010;2022-07-19T00:11:02;20.50;78.10
54461;DHT22;40371;49.414;11.010;2022-07-19T00:13:28;20.30;79.00
54461;DHT22;40371;49.414;11.010;2022-07-19T00:15:54;20.40;79.20
54461;DHT22;40371;49.414;11.010;2022-07-19T00:18:19;20.50;78.80
54461;DHT22;40371;49.414;11.010;2022-07-19T00:20:45;20.60;78.30
54461;DHT22;40371;49.414;11.010;2022-07-19T00:23:11;20.60;78.60
54461;DHT22;40371;49.414;11.010;2022-07-19T00:25:36;20.40;79.20
54461;DHT22;40371;49.414;11.010;2022-07-19T00:28:02;20.30;79.60
54461;DHT22;40371;49.414;11.010;2022-07-19T00:30:27;20.20;79.80
54461;DHT22;40371;49.414;11.010;2022-07-19T00:32:53;20.30;79.80
54461;DHT22;40371;49.414;11.010;2022-07-19T00:35:18;20.40;79.40
54461;DHT22;40371;49.414;11.010;2022-07-19T00:37:45;20.50;79.70
54461;DHT22;40371;49.414;11.010;2022-07-19T00:40:11;20.50;79.60
54461;DHT22;40371;49.414;11.010;2022-07-19T00:42:36;20.50;79.60
54461;DHT22;40371;49.414;11.010;2022-07-19T00:45:04;20.40;80.20
54461;DHT22;40371;49.414;11.010;2022-07-19T00:47:30;20.30;80.60
54461;DHT22;40371;49.414;11.010;2022-07-19T00:49:55;20.50;80.40
54461;DHT22;40371;49.414;11.010;2022-07-19T00:52:22;20.70;79.70
54461;DHT22;40371;49.414;11.010;2022-07-19T00:54:49;20.60;79.50
54461;DHT22;40371;49.414;11.010;2022-07-19T00:57:17;20.50;80.00
54461;DHT22;40371;49.414;11.010;2022-07-19T00:59:42;20.40;80.40
54461;DHT22;40371;49.414;11.010;2022-07-19T01:02:11;20.20;81.00
54461;DHT22;40371;49.414;11.010;2022-07-19T01:04:37;20.10;81.40
54461;DHT22;40371;49.414;11.010;2022-07-19T01:07:03;20.20;81.80
54461;DHT22;40371;49.414;11.010;2022-07-19T01:09:28;20.20;81.40
54461;DHT22;40371;49.414;11.010;2022-07-19T01:11:56;20.20;81.70
54461;DHT22;40371;49.414;11.010;2022-07-19T01:14:22;20.10;81.10
54461;DHT22;40371;49.414;11.010;2022-07-19T01:16:47;20.00;82.10
54461;DHT22;40371;49.414;11.010;2022-07-19T01:19:13;19.80;82.40
54461;DHT22;40371;49.414;11.010;2022-07-19T01:21:40;19.80;82.40
54461;DHT22;40371;49.414;11.010;2022-07-19T01:24:06;19.80;82.50
54461;DHT22;40371;49.414;11.010;2022-07-19T01:26:31;19.80;82.90
54461;DHT22;40371;49.414;11.010;2022-07-19T01:28:57;19.60;82.80
54461;DHT22;40371;49.414;11.010;2022-07-19T01:31:23;19.60;82.90
54461;DHT22;40371;49.414;11.010;2022-07-19T01:33:48;19.60;83.40
54461;DHT22;40371;49.414;11.010;2022-07-19T01:36:14;19.60;82.50
54461;DHT22;40371;49.414;11.010;2022-07-19T01:38:39;19.70;82.60
54461;DHT22;40371;49.414;11.010;2022-07-19T01:41:06;19.80;82.80
54461;DHT22;40371;49.414;11.010;2022-07-19T01:43:33;19.90;82.70
54461;DHT22;40371;49.414;11.010;2022-07-19T01:45:58;19.60;82.60
54461;DHT22;40371;49.414;11.010;2022-07-19T01:48:25;19.60;83.30
54461;DHT22;40371;49.414;11.010;2022-07-19T01:50:50;19.50;83.40
54461;DHT22;40371;49.414;11.010;2022-07-19T01:53:16;19.70;83.20
54461;DHT22;40371;49.414;11.010;2022-07-19T01:55:42;19.70;83.30
54461;DHT22;40371;49.414;11.010;2022-07-19T01:58:07;19.70;83.60
54461;DHT22;40371;49.414;11.010;2022-07-19T02:00:33;19.70;83.60
54461;DHT22;40371;49.414;11.010;2022-07-19T02:02:58;19.70;83.20
54461;DHT22;40371;49.414;11.010;2022-07-19T02:05:24;19.70;83.30
54461;DHT22;40371;49.414;11.010;2022-07-19T02:07:50;19.70;83.60
54461;DHT22;40371;49.414;11.010;2022-07-19T02:10:16;19.70;83.60
54461;DHT22;40371;49.414;11.010;2022-07-19T02:12:42;19.70;83.60
54461;DHT22;40371;49.414;11.010;2022-07-19T02:15:08;19.40;84.50
54461;DHT22;40371;49.414;11.010;2022-07-19T02:17:34;19.50;84.10
54461;DHT22;40371;49.414;11.010;2022-07-19T02:19:59;19.50;84.60
54461;DHT22;40371;49.414;11.010;2022-07-19T02:22:25;19.20;85.00
54461;DHT22;40371;49.414;11.010;2022-07-19T02:24:51;19.20;85.60
54461;DHT22;40371;49.414;11.010;2022-07-19T02:27:16;19.20;85.40
54461;DHT22;40371;49.414;11.010;2022-07-19T02:29:42;19.20;85.60
54461;DHT22;40371;49.414;11.010;2022-07-19T02:32:07;19.20;85.40
54461;DHT22;40371;49.414;11.010;2022-07-19T02:34:34;19.20;85.40
54461;DHT22;40371;49.414;11.010;2022-07-19T02:37:00;19.10;85.60
54461;DHT22;40371;49.414;11.010;2022-07-19T02:39:26;19.10;85.40
54461;DHT22;40371;49.414;11.010;2022-07-19T02:41:51;19.20;85.00
54461;DHT22;40371;49.414;11.010;2022-07-19T02:44:17;19.30;84.70
54461;DHT22;40371;49.414;11.010;2022-07-19T02:46:42;19.20;85.60
54461;DHT22;40371;49.414;11.010;2022-07-19T02:49:08;19.20;85.20
54461;DHT22;40371;49.414;11.010;2022-07-19T02:51:34;19.10;85.10
54461;DHT22;40371;49.414;11.010;2022-07-19T02:53:59;18.80;85.90
54461;DHT22;40371;49.414;11.010;2022-07-19T02:56:25;18.90;86.40
54461;DHT22;40371;49.414;11.010;2022-07-19T02:58:50;19.00;86.30
54461;DHT22;40371;49.414;11.010;2022-07-19T03:01:16;18.70;87.50
54461;DHT22;40371;49.414;11.010;2022-07-19T03:03:42;18.40;88.60
54461;DHT22;40371;49.414;11.010;2022-07-19T03:06:13;18.30;89.10
54461;DHT22;40371;49.414;11.010;2022-07-19T03:08:39;18.50;88.60
54461;DHT22;40371;49.414;11.010;2022-07-19T03:11:05;18.50;88.80
54461;DHT22;40371;49.414;11.010;2022-07-19T03:13:30;18.50;89.00
54461;DHT22;40371;49.414;11.010;2022-07-19T03:15:56;18.40;89.10
54461;DHT22;40371;49.414;11.010;2022-07-19T03:18:21;18.20;90.00
54461;DHT22;40371;49.414;11.010;2022-07-19T03:20:47;17.90;90.70
54461;DHT22;40371;49.414;11.010;2022-07-19T03:23:13;17.90;91.00
54461;DHT22;40371;49.414;11.010;2022-07-19T03:25:38;18.00;91.20
54461;DHT22;40371;49.414;11.010;2022-07-19T03:28:04;18.20;90.70
54461;DHT22;40371;49.414;11.010;2022-07-19T03:30:29;18.20;90.70
54461;DHT22;40371;49.414;11.010;2022-07-19T03:32:57;18.20;90.70
54461;DHT22;40371;49.414;11.010;2022-07-19T03:35:23;18.20;90.80
54461;DHT22;40371;49.414;11.010;2022-07-19T03:37:48;18.20;90.80
54461;DHT22;40371;49.414;11.010;2022-07-19T03:40:14;18.20;90.70
54461;DHT22;40371;49.414;11.010;2022-07-19T03:42:40;18.20;90.50
54461;DHT22;40371;49.414;11.010;2022-07-19T03:45:06;18.30;90.70
54461;DHT22;40371;49.414;11.010;2022-07-19T03:47:31;18.20;90.70
54461;DHT22;40371;49.414;11.010;2022-07-19T03:49:57;18.10;91.10
54461;DHT22;40371;49.414;11.010;2022-07-19T03:52:23;18.30;90.60
54461;DHT22;40371;49.414;11.010;2022-07-19T03:54:49;18.40;90.40
54461;DHT22;40371;49.414;11.010;2022-07-19T03:57:15;18.50;90.10
54461;DHT22;40371;49.414;11.010;2022-07-19T03:59:40;18.60;90.00
54461;DHT22;40371;49.414;11.010;2022-07-19T04:02:06;18.70;89.80
54461;DHT22;40371;49.414;11.010;2022-07-19T04:04:32;18.80;89.60
54461;DHT22;40371;49.414;11.010;2022-07-19T04:06:57;18.80;89.40
54461;DHT22;40371;49.414;11.010;2022-07-19T04:09:23;18.80;89.60
54461;DHT22;40371;49.414;11.010;2022-07-19T04:11:49;18.80;89.50
54461;DHT22;40371;49.414;11.010;2022-07-19T04:14:14;18.70;89.80
54461;DHT22;40371;49.414;11.010;2022-07-19T04:16:40;18.50;90.50
54461;DHT22;40371;49.414;11.010;2022-07-19T04:19:06;18.40;90.60
54461;DHT22;40371;49.414;11.010;2022-07-19T04:21:31;18.60;90.50
54461;DHT22;40371;49.414;11.010;2022-07-19T04:23:57;18.60;90.60
54461;DHT22;40371;49.414;11.010;2022-07-19T04:26:22;18.40;90.90
54461;DHT22;40371;49.414;11.010;2022-07-19T04:28:48;18.40;91.00
54461;DHT22;40371;49.414;11.010;2022-07-19T04:31:14;18.40;91.40
54461;DHT22;40371;49.414;11.010;2022-07-19T04:33:40;18.30;91.30
54461;DHT22;40371;49.414;11.010;2022-07-19T04:36:06;18.40;91.10
54461;DHT22;40371;49.414;11.010;2022-07-19T04:38:32;18.20;91.50
54461;DHT22;40371;49.414;11.010;2022-07-19T04:40:57;18.30;91.70
54461;DHT22;40371;49.414;11.010;2022-07-19T04:43:23;18.10;92.00
54461;DHT22;40371;49.414;11.010;2022-07-19T04:45:48;18.30;91.80
54461;DHT22;40371;49.414;11.010;2022-07-19T04:48:14;18.50;91.20
54461;DHT22;40371;49.414;11.010;2022-07-19T04:50:40;18.70;90.80
54461;DHT22;40371;49.414;11.010;2022-07-19T04:53:07;18.80;90.70
54461;DHT22;40371;49.414;11.010;2022-07-19T04:55:33;18.90;90.70
54461;DHT22;40371;49.414;11.010;2022-07-19T04:57:59;19.00;90.60
54461;DHT22;40371;49.414;11.010;2022-07-19T05:00:24;18.80;90.80
54461;DHT22;40371;49.414;11.010;2022-07-19T05:02:52;18.90;90.90
54461;DHT22;40371;49.414;11.010;2022-07-19T05:05:18;19.00;90.90
54461;DHT22;40371;49.414;11.010;2022-07-19T05:07:43;19.00;91.20
54461;DHT22;40371;49.414;11.010;2022-07-19T05:10:10;19.20;90.90
54461;DHT22;40371;49.414;11.010;2022-07-19T05:12:37;19.40;90.70
54461;DHT22;40371;49.414;11.010;2022-07-19T05:15:04;19.40;90.50
54461;DHT22;40371;49.414;11.010;2022-07-19T05:17:30;19.60;90.10
54461;DHT22;40371;49.414;11.010;2022-07-19T05:19:55;19.70;89.90
54461;DHT22;40371;49.414;11.010;2022-07-19T05:22:21;19.70;89.30
54461;DHT22;40371;49.414;11.010;2022-07-19T05:24:49;19.80;89.40
54461;DHT22;40371;49.414;11.010;2022-07-19T05:27:14;19.90;89.60
54461;DHT22;40371;49.414;11.010;2022-07-19T05:29:40;20.00;89.20
54461;DHT22;40371;49.414;11.010;2022-07-19T05:32:05;20.10;89.70
54461;DHT22;40371;49.414;11.010;2022-07-19T05:34:31;20.20;89.50
54461;DHT22;40371;49.414;11.010;2022-07-19T05:36:57;20.40;89.50
54461;DHT22;40371;49.414;11.010;2022-07-19T05:39:22;20.40;88.30
54461;DHT22;40371;49.414;11.010;2022-07-19T05:41:48;20.50;88.50
54461;DHT22;40371;49.414;11.010;2022-07-19T05:44:13;20.60;88.10
54461;DHT22;40371;49.414;11.010;2022-07-19T05:46:39;20.60;88.40
54461;DHT22;40371;49.414;11.010;2022-07-19T05:49:13;20.70;88.00
54461;DHT22;40371;49.414;11.010;2022-07-19T05:51:39;20.80;88.80
54461;DHT22;40371;49.414;11.010;2022-07-19T05:54:05;21.00;88.10
54461;DHT22;40371;49.414;11.010;2022-07-19T05:56:31;21.10;88.00
54461;DHT22;40371;49.414;11.010;2022-07-19T05:58:57;21.30;87.10
54461;DHT22;40371;49.414;11.010;2022-07-19T06:01:24;21.30;86.50
54461;DHT22;40371;49.414;11.010;2022-07-19T06:03:54;21.40;85.80
54461;DHT22;40371;49.414;11.010;2022-07-19T06:06:21;21.50;85.20
54461;DHT22;40371;49.414;11.010;2022-07-19T06:08:48;21.60;84.90
54461;DHT22;40371;49.414;11.010;2022-07-19T06:11:15;21.70;85.40
54461;DHT22;40371;49.414;11.010;2022-07-19T06:13:41;21.80;85.00
54461;DHT22;40371;49.414;11.010;2022-07-19T06:16:07;21.90;84.60
54461;DHT22;40371;49.414;11.010;2022-07-19T06:18:33;22.00;84.50
54461;DHT22;40371;49.414;11.010;2022-07-19T06:21:08;22.00;84.10
54461;DHT22;40371;49.414;11.010;2022-07-19T06:23:34;22.30;83.60
54461;DHT22;40371;49.414;11.010;2022-07-19T06:25:59;22.40;83.80
54461;DHT22;40371;49.414;11.010;2022-07-19T06:28:25;22.60;83.50
54461;DHT22;40371;49.414;11.010;2022-07-19T06:30:52;22.80;82.90
54461;DHT22;40371;49.414;11.010;2022-07-19T06:33:18;22.90;82.60
54461;DHT22;40371;49.414;11.010;2022-07-19T06:35:43;23.00;81.80
54461;DHT22;40371;49.414;11.010;2022-07-19T06:38:09;23.10;81.60
54461;DHT22;40371;49.414;11.010;2022-07-19T06:40:34;23.40;80.90
54461;DHT22;40371;49.414;11.010;2022-07-19T06:43:00;23.50;81.00
54461;DHT22;40371;49.414;11.010;2022-07-19T06:45:25;23.60;80.30
54461;DHT22;40371;49.414;11.010;2022-07-19T06:47:51;23.80;80.30
54461;DHT22;40371;49.414;11.010;2022-07-19T06:50:18;23.90;78.70
54461;DHT22;40371;49.414;11.010;2022-07-19T06:52:44;24.00;79.70
54461;DHT22;40371;49.414;11.010;2022-07-19T06:55:09;24.30;78.90
54461;DHT22;40371;49.414;11.010;2022-07-19T06:57:35;24.40;77.10
54461;DHT22;40371;49.414;11.010;2022-07-19T07:00:01;24.60;77.00
54461;DHT22;40371;49.414;11.010;2022-07-19T07:02:26;24.80;76.50
54461;DHT22;40371;49.414;11.010;2022-07-19T07:04:52;25.00;76.40
54461;DHT22;40371;49.414;11.010;2022-07-19T07:07:18;25.20;74.90
54461;DHT22;40371;49.414;11.010;2022-07-19T07:09:43;25.50;74.80
54461;DHT22;40371;49.414;11.010;2022-07-19T07:12:09;25.60;73.20
54461;DHT22;40371;49.414;11.010;2022-07-19T07:14:35;25.70;73.40
54461;DHT22;40371;49.414;11.010;2022-07-19T07:17:01;25.80;72.50
54461;DHT22;40371;49.414;11.010;2022-07-19T07:19:26;25.90;72.60
54461;DHT22;40371;49.414;11.010;2022-07-19T07:21:52;25.90;73.20
54461;DHT22;40371;49.414;11.010;2022-07-19T07:24:18;26.10;73.30
54461;DHT22;40371;49.414;11.010;2022-07-19T07:26:43;26.30;72.00
54461;DHT22;40371;49.414;11.010;2022-07-19T07:29:09;26.50;71.50
54461;DHT22;40371;49.414;11.010;2022-07-19T07:31:34;26.70;71.00
54461;DHT22;40371;49.414;11.010;2022-07-19T07:34:00;26.80;70.40
54461;DHT22;40371;49.414;11.010;2022-07-19T07:36:25;27.10;69.80
54461;DHT22;40371;49.414;11.010;2022-07-19T07:38:51;27.20;68.30
54461;DHT22;40371;49.414;11.010;2022-07-19T07:41:17;27.40;68.80
54461;DHT22;40371;49.414;11.010;2022-07-19T07:43:42;27.60;68.10
54461;DHT22;40371;49.414;11.010;2022-07-19T07:46:08;27.60;68.60
54461;DHT22;40371;49.414;11.010;2022-07-19T07:48:34;27.60;68.80
54461;DHT22;40371;49.414;11.010;2022-07-19T07:50:59;28.00;66.90
54461;DHT22;40371;49.414;11.010;2022-07-19T07:53:25;28.20;66.90
54461;DHT22;40371;49.414;11.010;2022-07-19T07:55:50;28.10;66.80
54461;DHT22;40371;49.414;11.010;2022-07-19T07:58:16;28.20;66.30
54461;DHT22;40371;49.414;11.010;2022-07-19T08:00:41;28.30;66.80
54461;DHT22;40371;49.414;11.010;2022-07-19T08:03:07;28.70;65.10
54461;DHT22;40371;49.414;11.010;2022-07-19T08:05:33;28.80;65.60
54461;DHT22;40371;49.414;11.010;2022-07-19T08:07:59;28.90;63.20
54461;DHT22;40371;49.414;11.010;2022-07-19T08:10:28;29.30;63.40
54461;DHT22;40371;49.414;11.010;2022-07-19T08:12:54;29.60;62.00
54461;DHT22;40371;49.414;11.010;2022-07-19T08:15:20;29.60;62.90
54461;DHT22;40371;49.414;11.010;2022-07-19T08:17:47;29.90;61.40
54461;DHT22;40371;49.414;11.010;2022-07-19T08:20:12;30.00;60.60
54461;DHT22;40371;49.414;11.010;2022-07-19T08:22:38;30.00;61.00
54461;DHT22;40371;49.414;11.010;2022-07-19T08:25:04;30.40;59.90
54461;DHT22;40371;49.414;11.010;2022-07-19T08:27:30;30.50;60.30
54461;DHT22;40371;49.414;11.010;2022-07-19T08:29:56;30.60;60.20
54461;DHT22;40371;49.414;11.010;2022-07-19T08:32:21;30.80;58.40
54461;DHT22;40371;49.414;11.010;2022-07-19T08:34:47;31.40;57.70
54461;DHT22;40371;49.414;11.010;2022-07-19T08:37:12;31.60;56.40
54461;DHT22;40371;49.414;11.010;2022-07-19T08:39:38;31.80;57.10
54461;DHT22;40371;49.414;11.010;2022-07-19T08:42:04;32.00;56.50
54461;DHT22;40371;49.414;11.010;2022-07-19T08:44:29;32.10;55.70
54461;DHT22;40371;49.414;11.010;2022-07-19T08:46:58;32.30;56.20
54461;DHT22;40371;49.414;11.010;2022-07-19T08:49:25;32.10;56.20
54461;DHT22;40371;49.414;11.010;2022-07-19T08:51:51;32.50;54.70
54461;DHT22;40371;49.414;11.010;2022-07-19T08:54:17;32.70;55.60
54461;DHT22;40371;49.414;11.010;2022-07-19T08:56:43;33.10;54.20
54461;DHT22;40371;49.414;11.010;2022-07-19T08:59:43;32.80;54.60
54461;DHT22;40371;49.414;11.010;2022-07-19T09:02:09;32.80;54.10
54461;DHT22;40371;49.414;11.010;2022-07-19T09:04:35;33.50;52.90
54461;DHT22;40371;49.414;11.010;2022-07-19T09:07:00;33.70;52.10
54461;DHT22;40371;49.414;11.010;2022-07-19T09:09:30;33.70;53.10
54461;DHT22;40371;49.414;11.010;2022-07-19T09:11:57;33.90;52.10
54461;DHT22;40371;49.414;11.010;2022-07-19T09:14:35;34.20;49.90
54461;DHT22;40371;49.414;11.010;2022-07-19T09:17:08;34.90;50.60
54461;DHT22;40371;49.414;11.010;2022-07-19T09:19:44;34.60;50.20
54461;DHT22;40371;49.414;11.010;2022-07-19T09:22:11;35.00;50.40
54461;DHT22;40371;49.414;11.010;2022-07-19T09:24:43;34.80;48.30
54461;DHT22;40371;49.414;11.010;2022-07-19T09:27:11;35.30;49.70
54461;DHT22;40371;49.414;11.010;2022-07-19T09:29:45;37.10;50.10
54461;DHT22;40371;49.414;11.010;2022-07-19T09:32:16;39.10;45.80
54461;DHT22;40371;49.414;11.010;2022-07-19T09:35:03;40.70;44.00
54461;DHT22;40371;49.414;11.010;2022-07-19T09:37:30;43.20;43.80
54461;DHT22;40371;49.414;11.010;2022-07-19T09:39:58;42.80;42.20
54461;DHT22;40371;49.414;11.010;2022-07-19T09:42:40;42.90;41.60
54461;DHT22;40371;49.414;11.010;2022-07-19T09:45:09;42.90;41.50
54461;DHT22;40371;49.414;11.010;2022-07-19T09:47:37;42.80;42.10
54461;DHT22;40371;49.414;11.010;2022-07-19T09:50:06;43.80;41.40
54461;DHT22;40371;49.414;11.010;2022-07-19T09:52:33;43.50;39.60
54461;DHT22;40371;49.414;11.010;2022-07-19T09:55:02;43.20;40.50
54461;DHT22;40371;49.414;11.010;2022-07-19T09:57:29;44.30;39.40
54461;DHT22;40371;49.414;11.010;2022-07-19T10:00:01;43.00;40.80
54461;DHT22;40371;49.414;11.010;2022-07-19T10:02:35;43.70;40.50
54461;DHT22;40371;49.414;11.010;2022-07-19T10:05:04;44.40;39.00
54461;DHT22;40371;49.414;11.010;2022-07-19T10:07:31;44.20;39.80
54461;DHT22;40371;49.414;11.010;2022-07-19T10:09:59;44.40;38.90
54461;DHT22;40371;49.414;11.010;2022-07-19T10:12:29;44.70;39.00
54461;DHT22;40371;49.414;11.010;2022-07-19T10:14:55;44.50;38.90
54461;DHT22;40371;49.414;11.010;2022-07-19T10:17:37;45.00;38.50
54461;DHT22;40371;49.414;11.010;2022-07-19T10:20:06;44.50;37.70
54461;DHT22;40371;49.414;11.010;2022-07-19T10:22:32;45.00;37.70
54461;DHT22;40371;49.414;11.010;2022-07-19T10:25:09;43.90;38.60
54461;DHT22;40371;49.414;11.010;2022-07-19T10:32:42;43.80;37.80
54461;DHT22;40371;49.414;11.010;2022-07-19T10:35:18;42.80;39.30
54461;DHT22;40371;49.414;11.010;2022-07-19T10:37:46;43.60;37.60
54461;DHT22;40371;49.414;11.010;2022-07-19T10:40:12;43.50;37.00
54461;DHT22;40371;49.414;11.010;2022-07-19T10:43:04;45.60;35.70
54461;DHT22;40371;49.414;11.010;2022-07-19T10:45:32;45.30;34.60
54461;DHT22;40371;49.414;11.010;2022-07-19T10:48:06;41.20;37.40
54461;DHT22;40371;49.414;11.010;2022-07-19T10:50:48;41.10;38.20
54461;DHT22;40371;49.414;11.010;2022-07-19T10:56:18;43.00;35.90
54461;DHT22;40371;49.414;11.010;2022-07-19T10:58:58;41.90;37.60
54461;DHT22;40371;49.414;11.010;2022-07-19T11:01:26;41.50;38.20
54461;DHT22;40371;49.414;11.010;2022-07-19T11:03:54;41.40;37.20
54461;DHT22;40371;49.414;11.010;2022-07-19T11:06:25;41.50;36.70
54461;DHT22;40371;49.414;11.010;2022-07-19T11:08:56;40.90;36.50
54461;DHT22;40371;49.414;11.010;2022-07-19T11:11:24;42.40;35.80
54461;DHT22;40371;49.414;11.010;2022-07-19T11:13:54;42.30;36.30
54461;DHT22;40371;49.414;11.010;2022-07-19T11:16:23;44.80;35.00
54461;DHT22;40371;49.414;11.010;2022-07-19T11:18:49;44.00;35.30
54461;DHT22;40371;49.414;11.010;2022-07-19T11:21:15;45.30;35.90
54461;DHT22;40371;49.414;11.010;2022-07-19T11:23:42;47.00;34.30
54461;DHT22;40371;49.414;11.010;2022-07-19T11:26:14;47.30;33.30
54461;DHT22;40371;49.414;11.010;2022-07-19T11:28:42;46.70;33.10
54461;DHT22;40371;49.414;11.010;2022-07-19T11:31:23;47.40;32.90
54461;DHT22;40371;49.414;11.010;2022-07-19T11:33:51;46.60;33.40
54461;DHT22;40371;49.414;11.010;2022-07-19T11:36:19;47.50;32.40
54461;DHT22;40371;49.414;11.010;2022-07-19T11:39:03;46.00;33.40
54461;DHT22;40371;49.414;11.010;2022-07-19T11:41:31;47.00;32.30
54461;DHT22;40371;49.414;11.010;2022-07-19T11:44:03;46.20;33.20
54461;DHT22;40371;49.414;11.010;2022-07-19T11:46:38;45.80;33.10
54461;DHT22;40371;49.414;11.010;2022-07-19T11:49:05;46.70;32.70
54461;DHT22;40371;49.414;11.010;2022-07-19T11:51:31;46.00;32.80
54461;DHT22;40371;49.414;11.010;2022-07-19T11:53:58;45.10;33.20
54461;DHT22;40371;49.414;11.010;2022-07-19T11:56:32;44.30;33.60
54461;DHT22;40371;49.414;11.010;2022-07-19T11:58:59;42.20;34.30
54461;DHT22;40371;49.414;11.010;2022-07-19T12:01:34;40.80;35.30
54461;DHT22;40371;49.414;11.010;2022-07-19T12:04:07;40.50;36.40
54461;DHT22;40371;49.414;11.010;2022-07-19T12:06:44;40.50;36.10
54461;DHT22;40371;49.414;11.010;2022-07-19T12:09:15;40.80;36.30
54461;DHT22;40371;49.414;11.010;2022-07-19T12:11:45;41.20;35.30
54461;DHT22;40371;49.414;11.010;2022-07-19T12:14:25;40.90;35.60
54461;DHT22;40371;49.414;11.010;2022-07-19T12:17:17;41.00;36.40
54461;DHT22;40371;49.414;11.010;2022-07-19T12:20:07;40.70;35.70
54461;DHT22;40371;49.414;11.010;2022-07-19T12:22:38;39.60;36.20
54461;DHT22;40371;49.414;11.010;2022-07-19T12:25:06;39.20;37.00
54461;DHT22;40371;49.414;11.010;2022-07-19T12:27:33;40.00;36.10
54461;DHT22;40371;49.414;11.010;2022-07-19T12:29:59;39.70;36.30
54461;DHT22;40371;49.414;11.010;2022-07-19T12:32:40;39.00;36.60
54461;DHT22;40371;49.414;11.010;2022-07-19T12:35:13;39.60;36.50
54461;DHT22;40371;49.414;11.010;2022-07-19T12:37:42;38.70;37.00
54461;DHT22;40371;49.414;11.010;2022-07-19T12:45:22;38.10;37.80
54461;DHT22;40371;49.414;11.010;2022-07-19T12:47:49;38.30;38.30
54461;DHT22;40371;49.414;11.010;2022-07-19T12:52:52;38.30;38.00
54461;DHT22;40371;49.414;11.010;2022-07-19T12:55:18;37.40;38.40
54461;DHT22;40371;49.414;11.010;2022-07-19T12:57:44;37.80;39.00
54461;DHT22;40371;49.414;11.010;2022-07-19T13:00:11;37.80;38.60
54461;DHT22;40371;49.414;11.010;2022-07-19T13:02:36;37.40;38.70
54461;DHT22;40371;49.414;11.010;2022-07-19T13:05:03;37.80;39.40
54461;DHT22;40371;49.414;11.010;2022-07-19T13:07:29;37.60;38.40
54461;DHT22;40371;49.414;11.010;2022-07-19T13:09:55;37.50;39.20
54461;DHT22;40371;49.414;11.010;2022-07-19T13:12:21;37.40;38.70
54461;DHT22;40371;49.414;11.010;2022-07-19T13:14:46;37.60;39.50
54461;DHT22;40371;49.414;11.010;2022-07-19T13:17:12;37.10;38.10
54461;DHT22;40371;49.414;11.010;2022-07-19T13:19:38;37.00;38.30
54461;DHT22;40371;49.414;11.010;2022-07-19T13:22:05;37.30;38.30
54461;DHT22;40371;49.414;11.010;2022-07-19T13:24:31;37.20;38.50
54461;DHT22;40371;49.414;11.010;2022-07-19T13:26:57;36.70;39.10
54461;DHT22;40371;49.414;11.010;2022-07-19T13:29:23;36.40;39.60
54461;DHT22;40371;49.414;11.010;2022-07-19T13:31:49;36.30;39.40
54461;DHT22;40371;49.414;11.010;2022-07-19T13:34:15;36.50;39.60
54461;DHT22;40371;49.414;11.010;2022-07-19T13:36:40;36.50;39.10
54461;DHT22;40371;49.414;11.010;2022-07-19T13:39:06;36.90;38.90
54461;DHT22;40371;49.414;11.010;2022-07-19T13:41:35;36.90;39.30
54461;DHT22;40371;49.414;11.010;2022-07-19T13:44:01;36.50;39.00
54461;DHT22;40371;49.414;11.010;2022-07-19T13:46:27;36.40;38.60
54461;DHT22;40371;49.414;11.010;2022-07-19T13:48:53;36.40;39.00
54461;DHT22;40371;49.414;11.010;2022-07-19T13:51:18;36.50;39.90
54461;DHT22;40371;49.414;11.010;2022-07-19T13:53:44;36.40;39.20
54461;DHT22;40371;49.414;11.010;2022-07-19T13:56:09;36.30;39.90
54461;DHT22;40371;49.414;11.010;2022-07-19T13:58:35;36.20;40.10
54461;DHT22;40371;49.414;11.010;2022-07-19T14:01:01;36.20;40.30
54461;DHT22;40371;49.414;11.010;2022-07-19T14:03:26;35.90;40.30
54461;DHT22;40371;49.414;11.010;2022-07-19T14:05:53;35.90;39.90
54461;DHT22;40371;49.414;11.010;2022-07-19T14:08:19;36.00;40.40
54461;DHT22;40371;49.414;11.010;2022-07-19T14:10:44;35.70;39.80
54461;DHT22;40371;49.414;11.010;2022-07-19T14:13:10;35.50;40.60
54461;DHT22;40371;49.414;11.010;2022-07-19T14:15:36;35.50;40.30
54461;DHT22;40371;49.414;11.010;2022-07-19T14:18:01;35.50;40.10
54461;DHT22;40371;49.414;11.010;2022-07-19T14:20:27;35.50;40.30
54461;DHT22;40371;49.414;11.010;2022-07-19T14:22:53;35.60;40.20
54461;DHT22;40371;49.414;11.010;2022-07-19T14:25:19;35.60;39.50
54461;DHT22;40371;49.414;11.010;2022-07-19T14:27:45;35.40;39.80
54461;DHT22;40371;49.414;11.010;2022-07-19T14:30:11;35.30;40.30
54461;DHT22;40371;49.414;11.010;2022-07-19T14:32:37;35.30;40.60
54461;DHT22;40371;49.414;11.010;2022-07-19T14:35:03;35.40;40.60
54461;DHT22;40371;49.414;11.010;2022-07-19T14:37:29;35.20;40.80
54461;DHT22;40371;49.414;11.010;2022-07-19T14:39:54;35.20;40.60
54461;DHT22;40371;49.414;11.010;2022-07-19T14:42:20;35.20;40.40
54461;DHT22;40371;49.414;11.010;2022-07-19T14:44:46;35.20;40.30
54461;DHT22;40371;49.414;11.010;2022-07-19T14:47:11;35.10;40.00
54461;DHT22;40371;49.414;11.010;2022-07-19T14:49:37;35.00;40.30
54461;DHT22;40371;49.414;11.010;2022-07-19T14:52:03;35.00;40.20
54461;DHT22;40371;49.414;11.010;2022-07-19T14:54:29;35.00;40.60
54461;DHT22;40371;49.414;11.010;2022-07-19T14:56:55;35.00;40.70
54461;DHT22;40371;49.414;11.010;2022-07-19T14:59:22;34.90;40.90
54461;DHT22;40371;49.414;11.010;2022-07-19T15:01:49;35.00;41.10
54461;DHT22;40371;49.414;11.010;2022-07-19T15:04:15;35.10;40.90
54461;DHT22;40371;49.414;11.010;2022-07-19T15:06:40;35.10;41.10
54461;DHT22;40371;49.414;11.010;2022-07-19T15:09:06;34.90;41.30
54461;DHT22;40371;49.414;11.010;2022-07-19T15:11:32;34.90;41.60
54461;DHT22;40371;49.414;11.010;2022-07-19T15:14:01;34.80;42.00
54461;DHT22;40371;49.414;11.010;2022-07-19T15:16:27;34.90;41.60
54461;DHT22;40371;49.414;11.010;2022-07-19T15:18:53;35.00;41.90
54461;DHT22;40371;49.414;11.010;2022-07-19T15:21:19;34.90;41.50
54461;DHT22;40371;49.414;11.010;2022-07-19T15:23:44;34.90;41.80
54461;DHT22;40371;49.414;11.010;2022-07-19T15:26:11;34.80;41.30
54461;DHT22;40371;49.414;11.010;2022-07-19T15:28:37;34.80;41.00
54461;DHT22;40371;49.414;11.010;2022-07-19T15:31:04;34.70;40.60